Stations météo

réclame
Mon MeteoGroup
Le Puy, France (7471): Température de l'air & dewpoint: 18.01.2018 10:00:00 - 24.01.2018 10:00:00 (CET)Le Puy, France (7471): Température de l'air 5cm: 18.01.2018 10:00:00 - 24.01.2018 10:00:00 (CET)Le Puy, France (7471): Température de l'air -20cm & Température de l'air -100cm: 18.01.2018 10:00:00 - 24.01.2018 10:00:00 (CET)Le Puy, France (7471): Vitesse du vent & gusts: 18.01.2018 10:00:00 - 24.01.2018 10:00:00 (CET)Le Puy, France (7471): Direction du vent: 18.01.2018 10:00:00 - 24.01.2018 10:00:00 (CET)Le Puy, France (7471): visibility: 18.01.2018 10:00:00 - 24.01.2018 10:00:00 (CET)Le Puy, France (7471): Ensoleillement: 18.01.2018 10:00:00 - 24.01.2018 10:00:00 (CET)Le Puy, France (7471): Quantités de précipitations: 18.01.2018 10:00:00 - 24.01.2018 10:00:00 (CET)
Date & Time tt [°C] td [°C] tt 5cm [°C] tt -20cm [°C] tt -100cm [°C] ff [km/h] ff [knt] fx [km/h] fx [knt] dd vv [km] sd [min] rr [mm]
24.01.2018 10:00:00 4,2 4,1 3,9 6,5 7,5 2 1 7 4 NNW 1,5 20 0,0
24.01.2018 09:00:00 3,8 3,5 3,9 6,5 7,5 4 2 11 6 W 0,1 0 0,0
24.01.2018 08:00:00 4,2 3,6 3,5 6,6 7,5 5 3 9 5 W 0,9 0 0,0
24.01.2018 07:00:00 5,3 4,3 4,9 6,6 7,5 6 4 17 9 WSW 20 0 0,0
24.01.2018 06:00:00 5,9 4,5 5,7 6,6 7,5 6 3 16 8 SSE 20 0 0,0
24.01.2018 05:00:00 6,6 4,6 6,3 6,6 7,5 5 3 13 7 SSE 20 0 0,0
24.01.2018 04:00:00 6,5 4,8 6,2 6,6 7,5 4 2 9 5 S 20 0 0,0
24.01.2018 03:00:00 6,7 4,7 6,2 6,6 7,5 5 3 10 5 SW 20 0 0,0
24.01.2018 02:00:00 6,4 4,9 5,8 6,6 7,5 6 3 11 6 W 20 0 0,0
24.01.2018 01:00:00 6,1 5,1 3,4 6,6 7,5 5 3 8 4 SW 20 0 0,0
24.01.2018 00:00:00 5,0 3,8 3,8 6,6 7,5 3 2 6 3 W 20 0 0,0
23.01.2018 23:00:00 5,2 4,0 4,4 6,6 7,5 0 0 8 5 N 20 0 0,0
23.01.2018 22:00:00 5,3 3,9 2,4 6,6 7,5 3 2 8 4 WSW 20 0 0,0
23.01.2018 21:00:00 5,3 3,1 2,8 6,6 7,5 2 1 9 5 SSE 20 0 0,0
23.01.2018 20:00:00 7,6 4,5 6,7 6,5 7,5 5 3 11 6 W 20 0 0,0
23.01.2018 19:00:00 8,5 2,9 7,7 6,5 7,5 0 0 16 9 N 20 0 0,0
23.01.2018 18:00:00 8,6 3,6 8,1 6,4 7,5 6 3 21 11 NNW 20 0 0,0
23.01.2018 17:00:00 9,9 1,5 9,6 6,3 7,5 9 5 18 10 NNW 20 0 0,0
23.01.2018 16:00:00 9,9 0,5 10,9 6,2 7,5 5 3 17 9 WNW 20 27 0,0
23.01.2018 15:00:00 10,2 0,8 13,7 6,2 7,5 13 7 27 14 WNW 20 60 0,0
23.01.2018 14:00:00 9,5 2,3 14,1 6,1 7,5 5 3 12 6 NNE 20 60 0,0
23.01.2018 13:00:00 8,9 2,5 12,7 6,2 7,5 3 2 10 5 SSW 20 60 0,0
23.01.2018 12:00:00 6,5 1,4 11,1 6,2 7,5 3 2 13 7 NNE 20 60 0,0
23.01.2018 11:00:00 5,9 1,0 6,6 6,3 7,5 2 1 7 4 NNE 20 27 0,0
23.01.2018 10:00:00 4,3 1,3 2,7 6,3 7,5 3 2 9 5 NW 20 10 0,0
23.01.2018 09:00:00 2,5 0,6 0,9 6,3 7,5 5 3 9 5 W 20 0 0,0
23.01.2018 08:00:00 1,8 0,2 0,8 6,4 7,5 5 3 10 5 SW 20 0 0,0
23.01.2018 07:00:00 2,5 0,2 0,6 6,4 7,5 2 1 14 8 S 20 0 0,0
23.01.2018 06:00:00 2,8 0,4 1,7 6,4 7,5 9 5 19 11 NNW 20 0 0,0
23.01.2018 05:00:00 3,6 0,8 2,8 6,4 7,5 13 7 18 10 NNW 20 0 0,0
23.01.2018 04:00:00 4,1 2,0 3,8 6,5 7,5 7 4 10 5 NW 20 0 0,0
23.01.2018 03:00:00 4,5 1,7 3,5 6,5 7,5 5 3 15 8 N 20 0 0,0
23.01.2018 02:00:00 4,9 2,4 4,4 6,5 7,5 12 7 31 17 N 20 0 0,0
23.01.2018 01:00:00 5,5 3,0 5,1 6,5 7,5 16 9 35 19 NNW 20 0 0,0
23.01.2018 00:00:00 5,9 3,6 5,5 6,5 7,5 18 10 46 25 NW 20 0 0,0
22.01.2018 23:00:00 6,4 4,6 5,3 6,4 7,5 27 14 46 25 NW 19 0 0,0
22.01.2018 22:00:00 6,7 5,0 5,9 6,4 7,5 26 14 42 23 NW 13 0 0,0
22.01.2018 21:00:00 6,9 5,0 6,2 6,4 7,5 17 9 34 19 WNW 15 0 0,0
22.01.2018 20:00:00 7,7 5,0 6,6 6,3 7,5 18 10 40 21 WNW 11 0 0,0
22.01.2018 19:00:00 8,7 4,5 7,8 6,2 7,5 24 13 42 23 WNW 20 0 0,0
22.01.2018 18:00:00 9,4 3,1 9,0 6,2 7,5 15 8 81 44 W 20 4 0,0
22.01.2018 17:00:00 10,2 2,5 9,7 6,1 7,6 41 22 85 46 WNW 20 12 0,0
22.01.2018 16:00:00 12,1 4,3 10,8 6,0 7,5 32 17 66 35 W 20 48 0,0
22.01.2018 15:00:00 10,8 6,0 10,5 5,9 7,5 33 18 71 38 W 20 38 0,0
22.01.2018 14:00:00 11,2 5,5 11,4 5,9 7,5 34 19 66 36 W 20 55 0,0
22.01.2018 13:00:00 10,6 5,1 11,5 5,8 7,5 34 18 75 41 W 20 56 0,0
22.01.2018 12:00:00 11,5 4,5 11,2 5,8 7,5 29 16 57 31 WNW 20 46 0,0
22.01.2018 11:00:00 10,2 4,6 9,8 5,8 7,5 12 6 38 20 W 20 45 0,0
22.01.2018 10:00:00 9,0 4,4 8,0 5,8 7,5 15 8 46 25 W 20 1 0,0
22.01.2018 09:00:00 8,5 4,5 7,9 5,8 7,5 13 7 34 19 W 20 0 0,0
22.01.2018 08:00:00 8,9 5,1 8,6 5,8 7,6 14 7 37 20 WNW 20 0 0,0
22.01.2018 07:00:00 9,4 5,4 8,3 5,8 7,6 13 7 40 22 W 20 0 0,0
22.01.2018 06:00:00 9,1 4,9 8,5 5,8 7,5 21 11 43 23 W 20 0 0,0
22.01.2018 05:00:00 8,9 4,9 7,1 5,8 7,5 16 8 30 16 W 20 0 0,2
22.01.2018 04:00:00 8,4 4,4 7,8 5,7 7,6 16 9 54 29 WSW 20 0 0,0
22.01.2018 03:00:00 8,4 4,2 7,5 5,7 7,5 26 14 54 29 W 20 0 0,0
22.01.2018 02:00:00 8,5 4,1 7,5 5,7 7,6 25 14 46 25 W 20 0 0,0
22.01.2018 01:00:00 8,4 4,6 7,7 5,7 7,6 16 8 45 24 WNW 20 0 0,0
22.01.2018 00:00:00 8,8 5,2 8,0 5,7 7,6 22 12 49 27 WNW 20 0 0,0
21.01.2018 23:00:00 9,2 5,7 8,3 5,6 7,6 23 12 54 29 WNW 20 0 0,0
21.01.2018 22:00:00 9,3 6,6 8,5 5,6 7,6 20 11 47 25 WNW 20 0 0,0
21.01.2018 21:00:00 9,6 6,7 8,7 5,6 7,6 24 13 56 30 WNW 20 0 0,0
21.01.2018 20:00:00 9,6 6,7 8,5 5,5 7,6 27 14 51 28 WNW 20 0 0,0
21.01.2018 19:00:00 9,4 7,0 8,0 5,4 7,5 24 13 46 25 WNW 20 0 0,0
21.01.2018 18:00:00 9,1 6,9 7,9 5,4 7,6 19 10 37 20 WNW 20 2 0,0
21.01.2018 17:00:00 8,8 7,2 6,6 5,4 7,5 14 8 27 15 WNW 20 27 0,0
21.01.2018 16:00:00 5,7 5,1 5,8 5,4 7,6 6 3 11 6 ESE 20 0 0,0
21.01.2018 15:00:00 5,2 4,3 5,7 5,3 7,6 4 2 7 4 E 20 1 0,2
21.01.2018 14:00:00 4,8 3,6 4,8 5,3 7,6 0 0 14 7 N 11 0 0,8
21.01.2018 13:00:00 4,7 3,2 4,1 5,3 7,6 9 5 16 9 N 9 0 0,4
21.01.2018 12:00:00 4,1 2,4 3,8 5,3 7,6 8 4 16 9 WSW 20 0 0,2
21.01.2018 11:00:00 4,4 2,6 3,7 5,2 7,5 5 3 14 8 NW 20 0 0,4
21.01.2018 10:00:00 4,4 2,1 3,8 5,2 7,6 12 7 45 25 N 20 0 0,4
21.01.2018 09:00:00 6,1 3,3 4,9 5,2 7,5 17 9 42 23 NW 19 0 0,2
21.01.2018 08:00:00 6,6 2,1 5,8 5,2 7,6 13 7 35 19 NW 20 0 0,0
21.01.2018 07:00:00 7,1 2,4 6,6 5,2 7,6 19 10 42 23 WNW 20 0 0,0
21.01.2018 06:00:00 7,4 2,7 7,0 5,1 7,6 22 12 58 32 WNW 20 0 0,0
21.01.2018 05:00:00 7,8 3,3 6,9 5,0 7,6 31 17 58 31 WNW 20 0 0,0
21.01.2018 04:00:00 7,4 4,4 5,8 5,0 7,6 23 12 50 27 WNW 20 0 0,0
21.01.2018 03:00:00 7,5 3,5 6,1 4,9 7,6 29 15 61 33 WNW 20 0 0,2
21.01.2018 02:00:00 8,4 6,2 7,2 4,9 7,6 29 15 64 35 WNW 3,2 0 0,4
21.01.2018 01:00:00 10,1 5,5 9,6 4,8 7,6 38 21 68 37 WNW 20 0 0,0
21.01.2018 00:00:00 10,1 6,1 9,6 4,8 7,6 35 19 65 35 WNW 20 0 0,0
20.01.2018 23:00:00 10,3 6,3 9,1 4,7 7,6 31 17 67 36 WNW 20 0 0,0
20.01.2018 22:00:00 9,8 6,7 8,0 4,6 7,5 29 16 50 27 WNW 20 0 2,4
20.01.2018 21:00:00 9,6 6,9 8,1 4,6 7,6 25 13 44 24 W 18 0 1,0
20.01.2018 20:00:00 9,7 6,4 8,1 4,6 7,6 21 12 46 25 WNW 20 0 0,4
20.01.2018 19:00:00 9,6 6,5 8,0 4,6 7,6 25 13 52 28 WNW 20 0 0,2
20.01.2018 18:00:00 10,0 5,8 8,8 4,5 7,6 22 12 50 27 W 20 0 0,0
20.01.2018 17:00:00 9,1 5,1 7,7 4,5 7,5 17 9 45 24 W 20 0 0,0
20.01.2018 16:00:00 8,0 3,8 7,7 4,5 7,6 24 13 54 29 W 20 0 0,0
20.01.2018 15:00:00 7,2 2,9 6,4 4,5 7,6 24 13 64 34 W 20 0 0,0
20.01.2018 14:00:00 6,1 2,2 4,0 4,6 7,6 31 17 63 34 WSW 20 0 0,0
20.01.2018 13:00:00 4,4 1,2 3,4 4,6 7,6 30 16 57 31 WSW 20 0 0,0
20.01.2018 12:00:00 3,8 0,8 2,4 4,6 7,6 16 9 34 18 WSW 20 0 0,0
20.01.2018 11:00:00 2,8 0,2 1,5 4,7 7,6 7 4 18 10 SSW 20 0 0,0
20.01.2018 10:00:00 2,1 0,0 0,0 4,7 7,6 5 3 16 9 S 20 0 0,0
20.01.2018 09:00:00 0,1 -0,5 -0,2 4,8 7,6 6 3 9 5 SE 20 0 0,2
20.01.2018 08:00:00 0,4 -0,5 -0,3 4,8 7,6 0 0 5 3 N 2,2 0 0,2
20.01.2018 07:00:00 0,8 -1,4 -0,4 4,9 7,6 4 2 9 5 SW 14 0 0,0
20.01.2018 06:00:00 0,8 -2,1 -0,1 4,9 7,6 0 0 17 9 N 20 0 0,0
20.01.2018 05:00:00 1,0 -2,1 -0,4 5,0 7,6 7 4 16 9 W 20 0 0,0
20.01.2018 04:00:00 0,9 -1,8 -0,2 5,0 7,6 7 4 37 20 W 20 0 0,0
20.01.2018 03:00:00 1,8 -1,6 -0,4 5,1 7,6 11 6 29 16 WNW 20 0 0,0
20.01.2018 02:00:00 0,9 -2,0 -0,8 5,1 7,6 5 3 12 7 WSW 20 0 0,0
20.01.2018 01:00:00 0,8 -2,3 -1,1 5,1 7,6 7 4 16 9 WNW 20 0 0,0
20.01.2018 00:00:00 1,2 -1,7 -0,4 5,2 7,6 6 3 11 6 W 20 0 0,0
19.01.2018 23:00:00 1,3 -1,8 -0,4 5,2 7,6 5 3 22 12 WNW 20 0 0,0
19.01.2018 22:00:00 1,5 -1,4 -0,2 5,2 7,6 11 6 29 16 NW 20 0 0,0
19.01.2018 21:00:00 2,5 -0,4 1,2 5,2 7,6 13 7 36 20 WNW 20 0 0,0
19.01.2018 20:00:00 2,8 0,0 1,4 5,1 7,6 22 12 39 21 WNW 20 0 0,0
19.01.2018 19:00:00 2,4 1,1 1,8 5,1 7,6 18 10 31 17 NW 3,2 0 0,6
19.01.2018 18:00:00 3,6 0,1 2,4 5,1 7,6 18 10 34 18 NW 20 0 0,0
19.01.2018 17:00:00 5,1 -1,4 4,6 5,1 7,6 18 10 37 20 WNW 20 8 0,0
19.01.2018 16:00:00 5,4 -1,3 5,4 5,0 7,6 16 8 41 22 WNW 20 10 0,0
19.01.2018 15:00:00 5,7 0,0 6,4 5,0 7,6 19 11 36 20 NW 20 41 0,0
19.01.2018 14:00:00 5,0 0,6 4,8 5,0 7,6 20 11 41 22 WNW 20 0 0,0
19.01.2018 13:00:00 5,4 1,1 5,1 5,0 7,6 23 13 39 21 WNW 20 15 0,0
19.01.2018 12:00:00 4,7 1,9 4,9 5,0 7,6 23 13 38 21 NW 20 21 0,0
19.01.2018 11:00:00 5,1 0,5 4,8 5,1 7,6 21 11 39 21 W 20 2 0,0
19.01.2018 10:00:00 4,6 0,7 0,9 5,1 7,6 13 7 27 15 WNW 20 0 0,0
19.01.2018 09:00:00 1,7 -1,0 0,3 5,1 7,6 0 0 7 4 N 20 0 0,0
19.01.2018 08:00:00 2,6 -0,9 -0,1 5,1 7,6 0 0 26 14 N 20 0 0,0
19.01.2018 07:00:00 4,2 -0,2 2,0 5,1 7,6 18 10 29 16 NW 20 0 0,0
19.01.2018 06:00:00 5,1 0,5 4,4 5,1 7,6 19 10 63 34 WNW 20 0 0,0
19.01.2018 05:00:00 5,8 0,9 5,0 5,1 7,6 32 17 64 35 W 20 0 0,0
19.01.2018 04:00:00 7,0 3,6 5,5 5,1 7,6 36 19 54 29 WNW 20 0 0,0
19.01.2018 03:00:00 7,0 4,8 5,3 5,1 7,6 18 10 40 22 W 14 0 0,4
19.01.2018 02:00:00 6,8 4,5 5,2 5,1 7,6 10 6 23 12 W 13 0 0,2
19.01.2018 01:00:00 6,7 3,7 5,5 5,0 7,6 4 2 30 16 W 20 0 0,0
19.01.2018 00:00:00 6,9 3,9 6,0 5,0 7,6 17 9 39 21 W 20 0 0,0
18.01.2018 23:00:00 6,8 3,6 5,1 5,0 7,6 18 10 43 23 W 20 0 0,0
18.01.2018 22:00:00 6,5 3,8 5,1 4,9 7,6 19 10 36 19 W 19 0 0,2
18.01.2018 21:00:00 6,5 3,3 5,6 4,9 7,6 16 8 36 20 W 20 0 0,0
18.01.2018 20:00:00 6,7 3,1 6,0 4,8 7,6 12 6 29 16 WSW 20 0 0,0
18.01.2018 19:00:00 6,7 2,8 5,9 4,8 7,6 9 5 31 17 WSW 20 0 0,0
18.01.2018 18:00:00 6,6 2,5 6,1 4,7 7,6 8 5 29 16 WSW 20 7 0,0
18.01.2018 17:00:00 7,5 2,2 7,5 4,6 7,6 14 8 39 21 WSW 20 12 0,0
18.01.2018 16:00:00 7,4 2,1 7,7 4,5 7,6 16 9 40 22 WSW 20 0 0,0
18.01.2018 15:00:00 7,7 2,0 8,5 4,5 7,6 23 12 49 26 WSW 20 40 0,0
18.01.2018 14:00:00 8,9 2,7 9,9 4,5 7,6 18 10 43 23 WSW 20 54 0,0
18.01.2018 13:00:00 8,0 1,8 9,0 4,5 7,6 14 8 42 23 WSW 20 37 0,0
18.01.2018 12:00:00 7,5 2,2 7,4 4,5 7,6 16 8 39 21 WSW 20 8 0,0
18.01.2018 11:00:00 6,4 1,5 5,5 4,6 7,6 10 5 35 19 WSW 20 2 0,0
18.01.2018 10:00:00 4,9 0,8 2,9 4,6 7,6 10 6 23 13 W 20 0 0,0

tt = Température de l'air
td = dewpoint
tt 5cm = Température de l'air 5cm
tt -20cm = Température de l'air -20cm
tt -100cm = Température de l'air -100cm
ff = Vitesse du vent
fx = gusts
dd = Direction du vent
vv = visibility
sd = Ensoleillement
rr = Quantités de précipitations

stations d'obs. à proximité